createdAt,value
2017-08-02T00:01:10.350Z,95.70
2017-08-02T00:03:37.793Z,95.80
2017-08-02T00:06:05.251Z,96.00
2017-08-02T00:08:32.687Z,96.50
2017-08-02T00:11:00.124Z,96.70
2017-08-02T00:13:28.418Z,97.40
2017-08-02T00:15:55.849Z,97.00
2017-08-02T00:18:23.340Z,96.80
2017-08-02T00:20:50.796Z,96.70
2017-08-02T00:23:18.247Z,96.90
2017-08-02T00:25:45.698Z,97.10
2017-08-02T00:28:13.135Z,97.40
2017-08-02T00:30:40.691Z,97.30
2017-08-02T00:33:08.241Z,97.30
2017-08-02T00:35:36.457Z,97.60
2017-08-02T00:38:03.915Z,97.60
2017-08-02T00:40:31.379Z,97.30
2017-08-02T00:42:58.819Z,97.30
2017-08-02T00:45:26.320Z,97.50
2017-08-02T00:47:54.546Z,97.80
2017-08-02T00:50:22.000Z,97.40
2017-08-02T00:52:49.488Z,97.70
2017-08-02T00:55:16.936Z,97.70
2017-08-02T00:57:44.380Z,97.50
2017-08-02T01:00:11.847Z,97.30
2017-08-02T01:02:39.279Z,97.00
2017-08-02T01:05:06.731Z,96.70
2017-08-02T01:07:34.171Z,96.60
2017-08-02T01:10:01.644Z,96.50
2017-08-02T01:12:29.084Z,96.70
2017-08-02T01:14:56.581Z,96.90
2017-08-02T01:17:24.044Z,96.60
2017-08-02T01:19:52.288Z,96.40
2017-08-02T01:22:19.753Z,96.30
2017-08-02T01:24:47.204Z,96.30
2017-08-02T01:27:14.639Z,96.30
2017-08-02T01:29:42.092Z,96.40
2017-08-02T01:32:09.527Z,96.40
2017-08-02T01:34:37.029Z,96.60
2017-08-02T01:37:04.460Z,96.70
2017-08-02T01:39:32.051Z,96.90
2017-08-02T01:42:00.247Z,96.70
2017-08-02T01:44:28.432Z,96.70
2017-08-02T01:46:55.904Z,96.70
2017-08-02T01:49:23.356Z,97.00
2017-08-02T01:51:50.784Z,97.20
2017-08-02T01:54:18.262Z,97.30
2017-08-02T01:56:45.700Z,97.20
2017-08-02T01:59:13.158Z,97.10
2017-08-02T02:01:40.636Z,97.40
2017-08-02T02:04:08.073Z,97.30
2017-08-02T02:06:35.552Z,97.70
2017-08-02T02:09:03.000Z,98.00
2017-08-02T02:11:30.464Z,98.10
2017-08-02T02:13:57.937Z,98.10
2017-08-02T02:16:25.371Z,98.10
2017-08-02T02:18:53.429Z,98.20
2017-08-02T02:21:20.880Z,98.20
2017-08-02T02:23:48.401Z,97.90
2017-08-02T02:26:15.847Z,98.10
2017-08-02T02:28:43.284Z,98.10
2017-08-02T02:31:11.505Z,98.50
2017-08-02T02:33:38.935Z,98.50
2017-08-02T02:36:06.392Z,98.60
2017-08-02T02:38:33.899Z,98.70
2017-08-02T02:41:02.128Z,98.90
2017-08-02T02:43:29.587Z,98.80
2017-08-02T02:45:57.016Z,98.80
2017-08-02T02:48:24.467Z,99.20
2017-08-02T02:50:51.919Z,99.40
2017-08-02T02:53:19.399Z,99.60
2017-08-02T02:55:46.894Z,99.60
2017-08-02T02:58:15.100Z,99.60
2017-08-02T03:00:42.561Z,99.60
2017-08-02T03:03:10.024Z,99.70
2017-08-02T03:05:37.536Z,99.80
2017-08-02T03:08:05.737Z,99.90
2017-08-02T03:10:33.188Z,99.90
2017-08-02T03:13:00.649Z,99.90
2017-08-02T03:15:28.167Z,99.90
2017-08-02T03:17:56.374Z,99.90
2017-08-02T03:20:23.879Z,99.90
2017-08-02T03:22:51.460Z,99.90
2017-08-02T03:25:20.513Z,99.90
2017-08-02T03:27:47.984Z,99.90
2017-08-02T03:30:15.448Z,99.90
2017-08-02T03:32:42.915Z,99.90
2017-08-02T03:35:10.351Z,99.90
2017-08-02T03:37:37.939Z,99.90
2017-08-02T03:40:05.521Z,99.90
2017-08-02T03:42:32.981Z,99.90
2017-08-02T03:45:00.451Z,99.90
2017-08-02T03:47:27.904Z,99.90
2017-08-02T03:49:55.342Z,99.90
2017-08-02T03:52:22.816Z,99.90
2017-08-02T03:54:50.257Z,99.90
2017-08-02T03:57:17.692Z,99.90
2017-08-02T03:59:45.207Z,99.90
2017-08-02T04:02:13.431Z,99.90
2017-08-02T04:04:40.900Z,99.90
2017-08-02T04:07:08.339Z,99.90
2017-08-02T04:09:35.800Z,99.90
2017-08-02T04:12:03.267Z,99.90
2017-08-02T04:14:30.736Z,99.90
2017-08-02T04:16:58.196Z,99.90
2017-08-02T04:19:25.640Z,99.90
2017-08-02T04:21:53.095Z,99.90
2017-08-02T04:24:20.540Z,99.90
2017-08-02T04:26:48.001Z,99.90
2017-08-02T04:29:15.449Z,99.80
2017-08-02T04:31:42.883Z,99.50
2017-08-02T04:34:10.450Z,99.30
2017-08-02T04:36:37.904Z,99.50
2017-08-02T04:39:05.380Z,99.60
2017-08-02T04:41:32.833Z,99.60
2017-08-02T04:44:01.166Z,99.70
2017-08-02T04:46:28.775Z,99.60
2017-08-02T04:48:56.334Z,99.60
2017-08-02T04:51:24.576Z,99.80
2017-08-02T04:53:52.020Z,99.80
2017-08-02T04:56:19.474Z,99.80
2017-08-02T04:58:46.931Z,99.60
2017-08-02T05:01:14.395Z,99.30
2017-08-02T05:03:41.824Z,99.20
2017-08-02T05:06:09.307Z,99.10
2017-08-02T05:08:36.768Z,98.90
2017-08-02T05:11:04.312Z,99.90
2017-08-02T05:13:31.787Z,98.40
2017-08-02T05:15:59.229Z,98.80
2017-08-02T05:18:26.692Z,98.70
2017-08-02T05:20:54.907Z,98.00
2017-08-02T05:23:22.364Z,98.00
2017-08-02T05:25:49.824Z,98.00
2017-08-02T05:28:17.272Z,98.10
2017-08-02T05:30:44.736Z,98.10
2017-08-02T05:33:12.188Z,97.90
2017-08-02T05:35:39.645Z,97.80
2017-08-02T05:38:07.103Z,98.10
2017-08-02T05:40:34.548Z,97.90
2017-08-02T05:43:02.024Z,97.50
2017-08-02T05:45:29.463Z,97.50
2017-08-02T05:47:56.924Z,97.30
2017-08-02T05:50:24.367Z,96.90
2017-08-02T05:52:51.811Z,95.60
2017-08-02T05:55:19.274Z,94.30
2017-08-02T05:57:46.717Z,92.30
2017-08-02T06:00:14.197Z,90.50
2017-08-02T06:02:41.664Z,87.10
2017-08-02T06:05:09.144Z,80.30
2017-08-02T06:07:37.351Z,75.00
2017-08-02T06:10:04.781Z,74.90
2017-08-02T06:12:32.259Z,73.20
2017-08-02T06:14:59.832Z,74.30
2017-08-02T06:17:27.279Z,73.40
2017-08-02T06:19:54.732Z,75.10
2017-08-02T06:22:22.188Z,79.20
2017-08-02T06:24:49.665Z,82.90
2017-08-02T06:27:17.113Z,87.20
2017-08-02T06:29:44.705Z,90.00
2017-08-02T06:32:12.932Z,90.00
2017-08-02T06:34:40.411Z,89.80
2017-08-02T06:37:07.845Z,90.90
2017-08-02T06:39:35.285Z,91.40
2017-08-02T06:42:02.743Z,91.40
2017-08-02T06:44:30.184Z,90.40
2017-08-02T06:46:57.669Z,90.70
2017-08-02T06:49:25.106Z,90.50
2017-08-02T06:51:52.560Z,89.90
2017-08-02T06:54:19.994Z,87.50
2017-08-02T06:56:47.460Z,83.40
2017-08-02T06:59:14.935Z,80.70
2017-08-02T07:01:42.367Z,76.10
2017-08-02T07:04:09.804Z,72.70
2017-08-02T07:06:37.249Z,70.30
2017-08-02T07:09:04.688Z,67.40
2017-08-02T07:11:32.919Z,67.10
2017-08-02T07:14:00.388Z,67.20
2017-08-02T07:16:27.901Z,63.70
2017-08-02T07:18:55.337Z,63.50
2017-08-02T07:21:22.779Z,60.80
2017-08-02T07:23:51.028Z,65.30
2017-08-02T07:26:18.459Z,65.30
2017-08-02T07:28:45.934Z,66.10
2017-08-02T07:31:13.364Z,63.80
2017-08-02T07:33:40.819Z,62.50
2017-08-02T07:36:08.268Z,59.60
2017-08-02T07:38:35.705Z,57.90
2017-08-02T07:41:03.195Z,57.40
2017-08-02T07:43:30.633Z,57.00
2017-08-02T07:45:58.095Z,56.40
2017-08-02T07:48:26.364Z,56.60
2017-08-02T07:50:53.794Z,59.70
2017-08-02T07:53:21.255Z,62.80
2017-08-02T07:55:48.693Z,61.10
2017-08-02T07:58:17.322Z,62.20
2017-08-02T08:00:44.749Z,62.70
2017-08-02T08:03:12.198Z,62.60
2017-08-02T08:05:39.665Z,63.90
2017-08-02T08:08:07.118Z,66.50
2017-08-02T08:10:34.589Z,64.50
2017-08-02T08:13:02.019Z,58.80
2017-08-02T08:15:29.490Z,55.50
2017-08-02T08:17:56.959Z,55.00
2017-08-02T08:20:24.399Z,56.50
2017-08-02T08:22:51.849Z,56.40
2017-08-02T08:25:19.299Z,53.60
2017-08-02T08:27:46.752Z,52.50
2017-08-02T08:30:14.198Z,50.80
2017-08-02T08:32:41.660Z,48.70
2017-08-02T08:35:09.184Z,48.10
2017-08-02T08:37:36.703Z,52.00
2017-08-02T08:40:04.904Z,57.10
2017-08-02T08:42:32.364Z,57.00
2017-08-02T08:44:59.799Z,56.90
2017-08-02T08:47:27.265Z,55.50
2017-08-02T08:49:54.701Z,53.30
2017-08-02T08:52:22.936Z,48.60
2017-08-02T08:54:50.902Z,49.10
2017-08-02T08:57:18.467Z,47.20
2017-08-02T08:59:45.902Z,46.60
2017-08-02T09:02:13.359Z,45.90
2017-08-02T09:04:40.816Z,45.60
2017-08-02T09:07:08.323Z,44.70
2017-08-02T09:09:35.767Z,44.90
2017-08-02T09:12:03.215Z,45.10
2017-08-02T09:14:31.455Z,45.20
2017-08-02T09:16:58.894Z,45.20
2017-08-02T09:19:26.344Z,44.90
2017-08-02T09:21:53.833Z,43.50
2017-08-02T09:24:21.265Z,41.70
2017-08-02T09:26:48.692Z,44.40
2017-08-02T09:29:16.148Z,43.70
2017-08-02T09:31:43.627Z,42.80
2017-08-02T09:34:11.080Z,43.60
2017-08-02T09:36:38.515Z,46.40
2017-08-02T09:39:05.965Z,45.40
2017-08-02T09:41:33.420Z,44.00
2017-08-02T09:44:00.878Z,41.90
2017-08-02T09:46:28.315Z,42.00
2017-08-02T09:48:55.780Z,40.80
2017-08-02T09:51:23.216Z,41.60
2017-08-02T09:53:50.679Z,42.60
2017-08-02T09:56:18.116Z,42.70
2017-08-02T09:58:45.614Z,41.90
2017-08-02T10:01:13.073Z,42.40
2017-08-02T10:03:40.506Z,41.30
2017-08-02T10:06:07.968Z,41.30
2017-08-02T10:08:35.399Z,43.60
2017-08-02T10:11:02.859Z,44.60
2017-08-02T10:13:30.313Z,45.00
2017-08-02T10:15:57.744Z,44.30
2017-08-02T10:18:25.201Z,44.20
2017-08-02T10:20:52.636Z,45.00
2017-08-02T10:23:20.863Z,43.00
2017-08-02T10:25:48.307Z,42.90
2017-08-02T10:28:15.735Z,43.60
2017-08-02T10:30:43.259Z,43.60
2017-08-02T10:33:11.455Z,45.70
2017-08-02T10:35:38.916Z,45.70
2017-08-02T10:38:06.374Z,47.20
2017-08-02T10:40:34.775Z,47.50
2017-08-02T10:43:02.208Z,48.60
2017-08-02T10:45:29.639Z,47.30
2017-08-02T10:47:57.135Z,47.90
2017-08-02T10:50:24.580Z,48.40
2017-08-02T10:52:52.043Z,48.90
2017-08-02T10:55:19.508Z,49.50
2017-08-02T10:57:46.984Z,50.30
2017-08-02T11:00:14.428Z,50.00
2017-08-02T11:02:41.885Z,50.20
2017-08-02T11:05:09.317Z,50.10
2017-08-02T11:07:36.780Z,50.30
2017-08-02T11:10:04.231Z,50.90
2017-08-02T11:12:31.679Z,51.40
2017-08-02T11:14:59.122Z,50.00
2017-08-02T11:17:26.577Z,48.30
2017-08-02T11:19:54.028Z,49.40
2017-08-02T11:22:21.472Z,50.20
2017-08-02T11:24:48.923Z,50.10
2017-08-02T11:27:16.364Z,50.30
2017-08-02T11:29:43.822Z,49.70
2017-08-02T11:32:11.250Z,49.70
2017-08-02T11:34:39.479Z,48.30
2017-08-02T11:37:06.939Z,48.30
2017-08-02T11:39:34.391Z,48.80
2017-08-02T11:42:01.832Z,49.40
2017-08-02T11:44:29.307Z,50.20
2017-08-02T11:46:56.743Z,50.50
2017-08-02T11:49:24.200Z,49.90
2017-08-02T11:51:51.637Z,50.30
2017-08-02T11:54:19.089Z,50.20
2017-08-02T11:56:46.539Z,49.50
2017-08-02T11:59:13.986Z,48.90
2017-08-02T12:01:41.432Z,47.70
2017-08-02T12:04:08.983Z,48.50
2017-08-02T12:06:36.475Z,48.50
2017-08-02T12:09:03.971Z,47.90
2017-08-02T12:11:32.207Z,46.10
2017-08-02T12:13:59.655Z,46.10
2017-08-02T12:16:27.100Z,45.20
2017-08-02T12:18:54.553Z,45.80
2017-08-02T12:21:22.020Z,47.70
2017-08-02T12:23:49.496Z,47.60
2017-08-02T12:26:16.934Z,44.70
2017-08-02T12:28:44.392Z,43.20
2017-08-02T12:31:11.845Z,43.50
2017-08-02T12:33:39.284Z,44.20
2017-08-02T12:36:06.740Z,44.00
2017-08-02T12:38:34.207Z,44.60
2017-08-02T12:41:01.655Z,45.70
2017-08-02T12:43:29.088Z,43.70
2017-08-02T12:45:56.540Z,43.90
2017-08-02T12:48:23.995Z,43.80
2017-08-02T12:50:51.445Z,44.70
2017-08-02T12:53:19.572Z,45.60
2017-08-02T12:55:47.788Z,45.90
2017-08-02T12:58:15.333Z,45.90
2017-08-02T13:00:42.914Z,44.40
2017-08-02T13:03:10.359Z,43.70
2017-08-02T13:05:37.800Z,43.20
2017-08-02T13:08:05.276Z,43.60
2017-08-02T13:10:32.731Z,43.80
2017-08-02T13:13:00.209Z,43.60
2017-08-02T13:15:27.688Z,42.60
2017-08-02T13:17:56.287Z,43.60
2017-08-02T13:20:23.728Z,43.60
2017-08-02T13:22:51.192Z,44.70
2017-08-02T13:25:18.628Z,45.40
2017-08-02T13:27:46.824Z,46.10
2017-08-02T13:30:14.273Z,46.10
2017-08-02T13:32:41.709Z,46.50
2017-08-02T13:35:09.922Z,45.90
2017-08-02T13:37:37.376Z,45.80
2017-08-02T13:40:04.809Z,43.70
2017-08-02T13:42:32.307Z,42.90
2017-08-02T13:44:59.770Z,41.80
2017-08-02T13:47:27.203Z,40.30
2017-08-02T13:49:54.660Z,41.10
2017-08-02T13:52:22.123Z,42.70
2017-08-02T13:54:49.563Z,43.50
2017-08-02T13:57:16.992Z,43.60
2017-08-02T13:59:45.323Z,42.50
2017-08-02T14:02:12.862Z,40.80
2017-08-02T14:04:40.311Z,39.60
2017-08-02T14:07:07.752Z,40.70
2017-08-02T14:09:35.197Z,41.70
2017-08-02T14:12:02.651Z,42.00
2017-08-02T14:14:30.117Z,41.50
2017-08-02T14:16:57.574Z,41.30
2017-08-02T14:19:25.080Z,40.90
2017-08-02T14:21:52.636Z,41.30
2017-08-02T14:24:20.842Z,41.50
2017-08-02T14:26:48.276Z,41.40
2017-08-02T14:29:15.768Z,41.80
2017-08-02T14:31:43.216Z,42.40
2017-08-02T14:34:11.021Z,42.60
2017-08-02T14:36:38.456Z,42.50
2017-08-02T14:39:05.908Z,43.20
2017-08-02T14:41:33.341Z,41.90
2017-08-02T14:44:00.799Z,41.60
2017-08-02T14:46:28.256Z,41.20
2017-08-02T14:48:55.696Z,41.70
2017-08-02T14:51:23.155Z,42.60
2017-08-02T14:53:50.593Z,42.00
2017-08-02T14:56:18.044Z,42.40
2017-08-02T14:58:45.485Z,43.30
2017-08-02T15:01:12.957Z,43.70
2017-08-02T15:03:40.393Z,43.50
2017-08-02T15:06:07.849Z,43.90
2017-08-02T15:08:35.332Z,43.10
2017-08-02T15:11:02.764Z,42.60
2017-08-02T15:13:30.233Z,42.70
2017-08-02T15:15:57.671Z,42.60
2017-08-02T15:18:25.106Z,43.10
2017-08-02T15:20:52.556Z,42.70
2017-08-02T15:23:19.992Z,41.90
2017-08-02T15:25:48.212Z,43.90
2017-08-02T15:28:15.647Z,43.80
2017-08-02T15:30:43.099Z,44.70
2017-08-02T15:33:10.558Z,45.50
2017-08-02T15:35:38.006Z,45.20
2017-08-02T15:38:05.474Z,43.40
2017-08-02T15:40:32.900Z,44.40
2017-08-02T15:43:00.374Z,44.80
2017-08-02T15:45:27.843Z,44.50
2017-08-02T15:47:55.299Z,44.10
2017-08-02T15:50:22.772Z,43.70
2017-08-02T15:52:50.227Z,44.20
2017-08-02T15:55:17.680Z,44.10
2017-08-02T15:57:45.114Z,43.90
2017-08-02T16:00:12.566Z,43.70
2017-08-02T16:02:40.028Z,43.80
2017-08-02T16:05:07.504Z,44.10
2017-08-02T16:07:34.951Z,43.80
2017-08-02T16:10:02.380Z,44.00
2017-08-02T16:12:29.846Z,44.30
2017-08-02T16:14:57.309Z,43.70
2017-08-02T16:17:24.773Z,43.80
2017-08-02T16:19:52.243Z,43.80
2017-08-02T16:22:19.687Z,44.20
2017-08-02T16:24:47.143Z,43.80
2017-08-02T16:27:14.591Z,43.70
2017-08-02T16:29:42.040Z,43.70
2017-08-02T16:32:09.569Z,43.70
2017-08-02T16:34:37.031Z,44.10
2017-08-02T16:37:04.474Z,44.20
2017-08-02T16:39:31.920Z,44.10
2017-08-02T16:41:59.389Z,44.60
2017-08-02T16:44:26.830Z,44.40
2017-08-02T16:46:54.286Z,44.60
2017-08-02T16:49:21.747Z,44.60
2017-08-02T16:51:49.224Z,44.50
2017-08-02T16:54:16.686Z,45.20
2017-08-02T16:56:44.120Z,45.20
2017-08-02T16:59:11.576Z,45.70
2017-08-02T17:01:39.031Z,45.40
2017-08-02T17:04:06.489Z,45.20
2017-08-02T17:06:34.439Z,45.30
2017-08-02T17:09:01.944Z,45.70
2017-08-02T17:11:30.161Z,46.60
2017-08-02T17:13:57.596Z,46.60
2017-08-02T17:16:25.047Z,46.60
2017-08-02T17:18:52.507Z,46.70
2017-08-02T17:21:19.948Z,47.00
2017-08-02T17:23:47.384Z,46.90
2017-08-02T17:26:15.620Z,47.50
2017-08-02T17:28:43.049Z,47.50
2017-08-02T17:31:10.515Z,47.00
2017-08-02T17:33:37.941Z,47.20
2017-08-02T17:36:05.376Z,47.50
2017-08-02T17:38:33.597Z,47.20
2017-08-02T17:41:01.033Z,47.30
2017-08-02T17:43:28.511Z,47.90
2017-08-02T17:45:55.948Z,47.70
2017-08-02T17:48:23.399Z,48.00
2017-08-02T17:50:50.837Z,47.70
2017-08-02T17:53:18.314Z,48.10
2017-08-02T17:55:45.784Z,48.30
2017-08-02T17:58:13.220Z,48.70
2017-08-02T18:00:41.672Z,49.10
2017-08-02T18:03:09.112Z,49.60
2017-08-02T18:05:36.552Z,49.70
2017-08-02T18:08:04.824Z,49.90
2017-08-02T18:10:33.041Z,49.60
2017-08-02T18:13:00.474Z,49.60
2017-08-02T18:15:27.971Z,49.90
2017-08-02T18:17:55.436Z,49.10
2017-08-02T18:20:22.991Z,49.20
2017-08-02T18:22:50.460Z,49.70
2017-08-02T18:25:17.894Z,50.30
2017-08-02T18:27:45.360Z,50.20
2017-08-02T18:30:12.807Z,50.60
2017-08-02T18:32:40.242Z,50.80
2017-08-02T18:35:07.695Z,50.80
2017-08-02T18:37:35.139Z,50.90
2017-08-02T18:40:02.622Z,50.50
2017-08-02T18:42:30.153Z,50.90
2017-08-02T18:44:58.070Z,50.80
2017-08-02T18:47:26.332Z,50.80
2017-08-02T18:49:54.539Z,51.30
2017-08-02T18:52:21.992Z,51.30
2017-08-02T18:54:49.428Z,52.00
2017-08-02T18:57:16.892Z,52.90
2017-08-02T18:59:44.338Z,53.20
2017-08-02T19:02:11.772Z,53.60
2017-08-02T19:04:40.016Z,54.50
2017-08-02T19:07:07.449Z,53.90
2017-08-02T19:09:34.936Z,54.00
2017-08-02T19:12:02.432Z,54.30
2017-08-02T19:14:29.877Z,54.40
2017-08-02T19:16:58.142Z,54.80
2017-08-02T19:19:26.370Z,55.80
2017-08-02T19:21:53.919Z,55.20
2017-08-02T19:24:21.467Z,55.30
2017-08-02T19:26:48.999Z,56.00
2017-08-02T19:29:16.625Z,55.90
2017-08-02T19:31:44.232Z,56.00
2017-08-02T19:34:11.777Z,56.20
2017-08-02T19:36:39.634Z,56.60
2017-08-02T19:39:07.246Z,56.90
2017-08-02T19:41:34.925Z,57.20
2017-08-02T19:44:03.363Z,57.80
2017-08-02T19:46:30.896Z,57.70
2017-08-02T19:48:58.535Z,57.90
2017-08-02T19:51:26.215Z,58.80
2017-08-02T19:53:53.736Z,59.20
2017-08-02T19:56:22.037Z,59.30
2017-08-02T19:58:49.534Z,59.70
2017-08-02T20:01:17.025Z,60.10
2017-08-02T20:03:44.480Z,60.70
2017-08-02T20:06:11.947Z,61.60
2017-08-02T20:08:39.388Z,62.10
2017-08-02T20:11:07.605Z,62.90
2017-08-02T20:13:35.042Z,62.80
2017-08-02T20:16:02.516Z,62.50
2017-08-02T20:18:29.967Z,62.40
2017-08-02T20:20:57.400Z,63.10
2017-08-02T20:23:24.867Z,63.50
2017-08-02T20:25:52.305Z,64.20
2017-08-02T20:28:19.763Z,64.90
2017-08-02T20:30:47.220Z,65.80
2017-08-02T20:33:14.663Z,66.40
2017-08-02T20:35:42.147Z,66.60
2017-08-02T20:38:09.614Z,66.80
2017-08-02T20:40:37.557Z,67.10
2017-08-02T20:43:05.026Z,67.50
2017-08-02T20:45:32.502Z,68.00
2017-08-02T20:47:59.965Z,68.50
2017-08-02T20:50:28.172Z,70.40
2017-08-02T20:52:55.613Z,69.60
2017-08-02T20:55:23.077Z,70.00
2017-08-02T20:57:50.552Z,70.10
2017-08-02T21:00:18.010Z,70.50
2017-08-02T21:02:45.457Z,71.10
2017-08-02T21:05:12.985Z,71.90
2017-08-02T21:07:41.272Z,72.60
2017-08-02T21:13:03.588Z,73.80
2017-08-02T21:43:15.298Z,77.70
2017-08-02T21:55:04.721Z,78.70
2017-08-02T22:05:56.127Z,79.90
2017-08-02T22:08:24.348Z,80.50
2017-08-02T22:10:51.817Z,80.50
2017-08-02T22:13:19.284Z,81.10
2017-08-02T22:15:46.762Z,81.50
2017-08-02T22:18:14.201Z,81.90
2017-08-02T22:20:41.718Z,82.10
2017-08-02T22:23:09.180Z,82.60
2017-08-02T22:25:36.638Z,82.80
2017-08-02T22:28:04.852Z,82.80
2017-08-02T22:30:32.292Z,82.70
2017-08-02T22:32:59.748Z,82.80
2017-08-02T22:35:27.203Z,82.90
2017-08-02T22:37:54.672Z,83.20
2017-08-02T22:40:22.142Z,83.70
2017-08-02T22:42:49.580Z,83.40
2017-08-02T22:45:17.820Z,83.20
2017-08-02T22:47:45.301Z,83.20
2017-08-02T22:50:12.734Z,83.30
2017-08-02T22:52:40.269Z,83.90
2017-08-02T22:55:07.808Z,84.20
2017-08-02T22:57:35.276Z,84.80
2017-08-02T23:00:02.752Z,85.70
2017-08-02T23:02:30.206Z,85.30
2017-08-02T23:04:58.444Z,85.60
2017-08-02T23:07:25.905Z,85.60
2017-08-02T23:09:53.358Z,85.80
2017-08-02T23:12:20.830Z,86.30
2017-08-02T23:14:48.262Z,86.80
2017-08-02T23:17:15.733Z,87.80
2017-08-02T23:19:43.185Z,88.00
2017-08-02T23:22:10.617Z,88.20
2017-08-02T23:24:38.083Z,88.00
2017-08-02T23:27:06.315Z,89.50
2017-08-02T23:29:33.791Z,88.60
2017-08-02T23:32:01.262Z,88.60
2017-08-02T23:34:28.714Z,88.50
2017-08-02T23:36:56.929Z,87.70
2017-08-02T23:39:24.393Z,87.80
2017-08-02T23:41:51.888Z,87.80
2017-08-02T23:44:19.350Z,87.60
2017-08-02T23:46:46.777Z,87.70
2017-08-02T23:49:14.279Z,87.60
2017-08-02T23:51:41.737Z,88.00
2017-08-02T23:54:09.168Z,87.70
2017-08-02T23:56:36.623Z,87.70
2017-08-02T23:59:04.063Z,87.80
